Nespelem, WA

5:31 PM PST on December 17, 2014 (GMT -0800)
Ephrata Municipal | Change Station
CLOSE
Current Station
Airport
Location: Ephrata,
Elevation: 1273 ft
Nearby Weather Stations
Active Advisory: Air Stagnation Advisory

Elev 1273 ft 47.31 °N, 119.52 °W | Updated 17 minutes ago

Overcast
Overcast
38 °F
Feels Like 31 °F
N
10
Wind Variable Wind from NW

Today
High -- | Low -- °F
--% Chance of Precip.
Yesterday
High -- | Low -- °F
Precip. -- in
7:42 AM 4:03 PM
Waning Crescent, 18% visible
Pressure 29.93 in
Visibility 10.0 miles
Clouds Scattered Clouds 2500 ft
Mostly Cloudy 7500 ft
Overcast 10000 ft
Windchill 31 °F
Dew Point 35 °F
Humidity 89%
Rainfall 0.02 in
Snow Depth Not available.
UV 0 out of 12
Pollen .10 out of 12
Air Quality Not available.
Flu Activity Not available.
SPECI KEPH 180114Z AUTO 32009KT 10SM SCT025 BKN075 OVC100 03/02 A2993 RMK AO2 T00330017

More Conditions Fewer Conditions

Pressure 29.93 in
Visibility 10.0 miles
Clouds Scattered Clouds 2500 ft
Mostly Cloudy 7500 ft
Overcast 10000 ft
Windchill 31 °F
Dew Point 35 °F
Humidity 89%
Rainfall 0.02 in
Snow Depth Not available.
UV 0 out of 12
Pollen .10 out of 12
Air Quality Not available.
Flu Activity Not available.
SPECI KEPH 180114Z AUTO 32009KT 10SM SCT025 BKN075 OVC100 03/02 A2993 RMK AO2 T00330017

More Conditions Fewer Conditions

10-Day Weather Forecast

Almanac

Astronomy

Dec. 17, 2014 Rise Set
Actual Time
Civil Twilight
Nautical Twilight
Astronomical Twilight
Moon
Length of Visible Light
Length of Day
Tomorrow will be .
, % of the Moon is Illuminated

Today's Extremes

State Highs State Lows

Community

WunderPhotos

Upload Photos

1,778,846 photos uploaded!

WunderBlogs® & News

Nearby

Air Quality

  Air Quality AQ Index Pollutant
Not available.

Snow Depth

Station Depth Elevation

Earthquake Activity

City Distance Mag. Time & Date
Minimum magnitude displayed is 2.5.

Coastal Water Temperatures

Place Temperature

Nearby Weather Stations